createdAt,value
2022-10-23T00:01:30.584Z,4.65
2022-10-23T00:04:19.153Z,4.70
2022-10-23T00:07:04.323Z,5.30
2022-10-23T00:09:49.197Z,4.47
2022-10-23T00:12:34.336Z,4.50
2022-10-23T00:15:22.666Z,3.80
2022-10-23T00:18:07.976Z,4.45
2022-10-23T00:20:52.873Z,3.88
2022-10-23T00:23:38.510Z,4.28
2022-10-23T00:26:23.594Z,3.73
2022-10-23T00:29:10.618Z,4.18
2022-10-23T00:31:55.797Z,4.13
2022-10-23T00:34:40.872Z,4.07
2022-10-23T00:37:26.105Z,4.40
2022-10-23T00:40:12.193Z,3.97
2022-10-23T00:42:57.262Z,3.75
2022-10-23T00:45:42.123Z,4.53
2022-10-23T00:48:28.614Z,3.88
2022-10-23T00:51:13.592Z,4.13
2022-10-23T00:54:22.845Z,3.70
2022-10-23T00:57:12.989Z,3.45
2022-10-23T00:59:58.217Z,3.90
2022-10-23T01:02:43.945Z,3.80
2022-10-23T01:05:39.431Z,3.67
2022-10-23T01:08:52.656Z,3.50
2022-10-23T01:11:44.375Z,3.50
2022-10-23T01:14:37.681Z,3.90
2022-10-23T01:17:30.513Z,3.75
2022-10-23T01:20:30.342Z,3.60
2022-10-23T01:23:33.552Z,3.50
2022-10-23T01:26:50.614Z,3.58
2022-10-23T01:29:43.605Z,3.60
2022-10-23T01:32:37.467Z,3.50
2022-10-23T01:35:27.346Z,3.78
2022-10-23T01:38:14.900Z,3.87
2022-10-23T01:41:04.647Z,3.70
2022-10-23T01:44:11.543Z,3.70
2022-10-23T01:46:57.665Z,3.25
2022-10-23T01:49:44.500Z,3.40
2022-10-23T01:52:30.252Z,3.53
2022-10-23T01:55:16.484Z,3.33
2022-10-23T01:58:03.360Z,3.80
2022-10-23T02:00:50.020Z,4.47
2022-10-23T02:03:37.497Z,4.70
2022-10-23T02:06:22.740Z,4.23
2022-10-23T02:09:07.846Z,5.18
2022-10-23T02:11:57.960Z,4.47
2022-10-23T02:15:02.162Z,4.68
2022-10-23T02:18:09.537Z,4.30
2022-10-23T02:21:13.300Z,4.27
2022-10-23T02:24:07.555Z,5.15
2022-10-23T02:26:55.570Z,4.60
2022-10-23T02:29:45.846Z,4.25
2022-10-23T02:32:31.016Z,4.63
2022-10-23T02:35:18.126Z,4.20
2022-10-23T02:38:03.605Z,3.88
2022-10-23T02:40:48.819Z,4.20
2022-10-23T02:43:43.411Z,4.32
2022-10-23T02:46:41.272Z,4.07
2022-10-23T02:49:47.897Z,3.37
2022-10-23T02:52:45.059Z,3.45
2022-10-23T02:55:46.411Z,3.45
2022-10-23T02:58:49.165Z,3.90
2022-10-23T03:01:44.148Z,3.50
2022-10-23T03:04:31.700Z,3.40
2022-10-23T03:07:19.244Z,3.20
2022-10-23T03:10:04.768Z,3.60
2022-10-23T03:12:50.526Z,3.63
2022-10-23T03:15:35.603Z,3.00
2022-10-23T03:18:20.926Z,3.23
2022-10-23T03:21:06.183Z,3.45
2022-10-23T03:23:51.082Z,3.35
2022-10-23T03:26:36.023Z,3.67
2022-10-23T03:29:21.274Z,3.28
2022-10-23T03:32:06.353Z,3.30
2022-10-23T03:34:51.740Z,3.13
2022-10-23T03:37:36.741Z,3.33
2022-10-23T03:40:21.741Z,3.25
2022-10-23T03:43:06.970Z,3.53
2022-10-23T03:45:52.037Z,2.90
2022-10-23T03:48:38.170Z,3.17
2022-10-23T03:51:23.112Z,3.08
2022-10-23T03:54:08.504Z,3.08
2022-10-23T03:56:57.365Z,3.70
2022-10-23T03:59:42.956Z,2.77
2022-10-23T04:02:28.035Z,3.28
2022-10-23T04:05:13.643Z,3.05
2022-10-23T04:07:58.679Z,2.80
2022-10-23T04:10:43.660Z,2.80
2022-10-23T04:13:28.712Z,2.90
2022-10-23T04:16:13.740Z,2.55
2022-10-23T04:18:58.940Z,3.00
2022-10-23T04:21:44.268Z,2.92
2022-10-23T04:24:29.700Z,3.08
2022-10-23T04:27:14.834Z,3.37
2022-10-23T04:30:00.148Z,2.88
2022-10-23T04:32:44.895Z,2.75
2022-10-23T04:35:30.126Z,2.72
2022-10-23T04:38:15.463Z,2.78
2022-10-23T04:41:00.548Z,2.70
2022-10-23T04:43:45.253Z,2.58
2022-10-23T04:46:30.350Z,2.70
2022-10-23T04:49:15.357Z,2.92
2022-10-23T04:52:00.524Z,2.83
2022-10-23T04:54:45.501Z,2.73
2022-10-23T04:57:30.562Z,2.25
2022-10-23T05:00:16.071Z,2.47
2022-10-23T05:03:01.304Z,2.58
2022-10-23T05:05:46.260Z,2.88
2022-10-23T05:08:31.952Z,2.50
2022-10-23T05:11:17.013Z,2.80
2022-10-23T05:14:02.239Z,2.50
2022-10-23T05:17:02.728Z,2.70
2022-10-23T05:19:53.208Z,2.30
2022-10-23T05:22:40.878Z,2.40
2022-10-23T05:25:26.404Z,2.60
2022-10-23T05:28:11.341Z,2.70
2022-10-23T05:30:59.573Z,2.45
2022-10-23T05:33:44.610Z,2.60
2022-10-23T05:36:29.723Z,2.30
2022-10-23T05:39:15.473Z,2.60
2022-10-23T05:42:00.512Z,2.50
2022-10-23T05:44:45.466Z,2.30
2022-10-23T05:47:31.410Z,2.47
2022-10-23T05:50:16.427Z,2.97
2022-10-23T05:53:01.326Z,2.78
2022-10-23T05:55:46.115Z,3.15
2022-10-23T05:58:31.370Z,3.20
2022-10-23T06:01:17.933Z,3.22
2022-10-23T06:04:04.188Z,2.83
2022-10-23T06:06:49.258Z,2.92
2022-10-23T06:09:34.464Z,2.50
2022-10-23T06:12:20.794Z,2.90
2022-10-23T06:15:06.503Z,3.17
2022-10-23T06:17:51.662Z,2.53
2022-10-23T06:20:38.344Z,2.78
2022-10-23T06:23:23.324Z,2.65
2022-10-23T06:26:12.463Z,2.40
2022-10-23T06:28:57.258Z,2.53
2022-10-23T06:31:42.295Z,2.40
2022-10-23T06:34:27.598Z,2.95
2022-10-23T06:37:12.888Z,3.10
2022-10-23T06:39:57.730Z,2.80
2022-10-23T06:42:42.866Z,2.63
2022-10-23T06:45:29.924Z,2.67
2022-10-23T06:48:15.683Z,2.92
2022-10-23T06:51:05.639Z,2.72
2022-10-23T06:53:50.826Z,2.70
2022-10-23T06:56:36.187Z,2.75
2022-10-23T06:59:21.259Z,2.73
2022-10-23T07:02:06.384Z,2.60
2022-10-23T07:04:51.201Z,2.70
2022-10-23T07:07:36.476Z,2.90
2022-10-23T07:10:22.100Z,2.47
2022-10-23T07:13:08.542Z,2.37
2022-10-23T07:15:53.611Z,2.65
2022-10-23T07:18:39.253Z,2.13
2022-10-23T07:21:25.853Z,2.40
2022-10-23T07:24:10.920Z,2.60
2022-10-23T07:26:56.074Z,2.13
2022-10-23T07:29:41.967Z,2.35
2022-10-23T07:32:28.467Z,2.10
2022-10-23T07:38:03.319Z,2.42
2022-10-23T07:40:48.280Z,2.30
2022-10-23T07:43:34.707Z,2.00
2022-10-23T07:46:19.377Z,2.22
2022-10-23T07:49:04.670Z,2.13
2022-10-23T07:51:51.403Z,2.28
2022-10-23T07:54:36.755Z,2.20
2022-10-23T07:57:21.932Z,2.70
2022-10-23T08:00:08.387Z,3.13
2022-10-23T08:02:53.510Z,2.40
2022-10-23T08:05:38.811Z,2.60
2022-10-23T08:08:25.105Z,2.40
2022-10-23T08:11:13.549Z,2.90
2022-10-23T08:13:58.590Z,2.88
2022-10-23T08:16:43.547Z,2.15
2022-10-23T08:19:28.672Z,1.90
2022-10-23T08:22:14.632Z,2.00
2022-10-23T08:24:59.384Z,2.25
2022-10-23T08:27:44.483Z,2.13
2022-10-23T08:30:29.638Z,2.20
2022-10-23T08:33:14.699Z,1.90
2022-10-23T08:35:59.842Z,1.60
2022-10-23T08:38:44.826Z,1.95
2022-10-23T08:41:36.241Z,1.85
2022-10-23T08:44:37.978Z,1.70
2022-10-23T08:47:39.698Z,2.13
2022-10-23T08:53:29.334Z,1.80
2022-10-23T08:56:22.620Z,1.50
2022-10-23T08:59:26.148Z,1.55
2022-10-23T09:02:22.994Z,1.50
2022-10-23T09:05:16.826Z,1.50
2022-10-23T09:08:39.543Z,1.73
2022-10-23T09:11:53.419Z,1.80
2022-10-23T09:14:59.213Z,1.35
2022-10-23T09:17:45.778Z,1.60
2022-10-23T09:20:35.239Z,1.33
2022-10-23T09:23:22.799Z,1.90
2022-10-23T09:26:16.143Z,1.80
2022-10-23T09:29:14.015Z,1.50
2022-10-23T09:32:01.247Z,1.55
2022-10-23T09:34:55.063Z,1.60
2022-10-23T09:37:48.349Z,1.65
2022-10-23T09:40:41.178Z,1.80
2022-10-23T09:43:27.528Z,2.65
2022-10-23T09:46:12.519Z,1.48
2022-10-23T09:49:00.845Z,1.80
2022-10-23T09:51:54.268Z,1.30
2022-10-23T09:54:45.660Z,1.90
2022-10-23T09:57:44.360Z,1.50
2022-10-23T10:00:29.495Z,1.23
2022-10-23T10:03:20.936Z,1.90
2022-10-23T10:06:05.890Z,1.40
2022-10-23T10:08:54.411Z,1.38
2022-10-23T10:11:48.130Z,2.58
2022-10-23T10:14:42.360Z,1.17
2022-10-23T10:17:39.234Z,1.20
2022-10-23T10:20:53.303Z,0.77
2022-10-23T10:23:50.229Z,1.00
2022-10-23T10:26:59.664Z,1.10
2022-10-23T10:30:19.035Z,1.10
2022-10-23T10:33:32.342Z,1.00
2022-10-23T10:36:39.700Z,1.10
2022-10-23T10:39:55.065Z,1.20
2022-10-23T10:43:06.209Z,1.08
2022-10-23T10:45:59.968Z,1.00
2022-10-23T10:49:00.360Z,1.10
2022-10-23T10:52:06.579Z,1.30
2022-10-23T10:55:03.619Z,1.27
2022-10-23T10:58:03.108Z,1.33
2022-10-23T11:00:52.955Z,1.40
2022-10-23T11:03:52.066Z,1.40
2022-10-23T11:06:38.063Z,1.30
2022-10-23T11:09:30.305Z,1.30
2022-10-23T11:12:19.071Z,1.10
2022-10-23T11:15:11.863Z,1.77
2022-10-23T11:18:03.360Z,1.30
2022-10-23T11:21:19.191Z,1.20
2022-10-23T11:24:39.455Z,1.33
2022-10-23T11:27:51.639Z,1.10
2022-10-23T11:31:00.324Z,1.30
2022-10-23T11:34:09.128Z,1.20
2022-10-23T11:36:59.142Z,1.50
2022-10-23T11:40:03.066Z,1.38
2022-10-23T11:42:49.851Z,1.45
2022-10-23T11:45:40.499Z,1.50
2022-10-23T11:48:40.462Z,1.20
2022-10-23T11:51:32.846Z,1.25
2022-10-23T11:54:17.620Z,1.10
2022-10-23T11:57:15.057Z,1.27
2022-10-23T12:00:00.111Z,1.05
2022-10-23T12:02:57.008Z,1.23
2022-10-23T12:05:45.613Z,1.30
2022-10-23T12:08:35.108Z,1.40
2022-10-23T12:11:42.206Z,1.40
2022-10-23T12:14:36.823Z,1.33
2022-10-23T12:17:24.686Z,1.40
2022-10-23T12:20:19.306Z,1.42
2022-10-23T12:23:30.061Z,1.60
2022-10-23T12:26:29.420Z,1.80
2022-10-23T12:29:28.191Z,1.27
2022-10-23T12:32:42.467Z,1.20
2022-10-23T12:35:58.200Z,1.10
2022-10-23T12:38:46.324Z,1.65
2022-10-23T12:41:34.557Z,1.25
2022-10-23T12:44:20.076Z,1.52
2022-10-23T12:47:06.271Z,1.50
2022-10-23T12:49:52.282Z,1.50
2022-10-23T12:52:39.567Z,1.58
2022-10-23T12:55:30.918Z,1.30
2022-10-23T12:58:32.378Z,1.30
2022-10-23T13:01:26.929Z,1.33
2022-10-23T13:04:31.504Z,1.42
2022-10-23T13:07:19.484Z,1.35
2022-10-23T13:10:05.503Z,1.33
2022-10-23T13:12:55.537Z,1.50
2022-10-23T13:15:43.053Z,1.47
2022-10-23T13:18:28.038Z,1.20
2022-10-23T13:21:20.448Z,1.75
2022-10-23T13:24:15.992Z,1.55
2022-10-23T13:27:00.788Z,1.42
2022-10-23T13:29:46.044Z,1.60
2022-10-23T13:32:30.958Z,1.77
2022-10-23T13:35:22.929Z,1.58
2022-10-23T13:38:09.249Z,1.65
2022-10-23T13:40:59.135Z,1.80
2022-10-23T13:43:45.946Z,1.93
2022-10-23T13:46:30.977Z,1.40
2022-10-23T13:49:16.556Z,1.80
2022-10-23T13:52:01.300Z,1.77
2022-10-23T13:54:46.325Z,2.10
2022-10-23T13:57:31.148Z,1.90
2022-10-23T14:00:17.051Z,1.75
2022-10-23T14:03:02.078Z,1.60
2022-10-23T14:05:46.954Z,1.58
2022-10-23T14:08:32.083Z,1.50
2022-10-23T14:11:19.155Z,1.47
2022-10-23T14:14:04.331Z,2.28
2022-10-23T14:16:49.451Z,1.92
2022-10-23T14:19:34.852Z,1.75
2022-10-23T14:22:19.942Z,1.20
2022-10-23T14:25:05.840Z,1.50
2022-10-23T14:27:50.698Z,1.70
2022-10-23T14:30:37.026Z,1.42
2022-10-23T14:33:22.093Z,1.40
2022-10-23T14:36:08.304Z,1.90
2022-10-23T14:38:58.053Z,1.53
2022-10-23T14:41:43.136Z,1.73
2022-10-23T14:44:28.269Z,1.90
2022-10-23T14:47:13.251Z,1.70
2022-10-23T14:49:58.520Z,2.90
2022-10-23T14:52:43.403Z,2.30
2022-10-23T14:55:28.526Z,2.80
2022-10-23T14:58:13.472Z,4.05
2022-10-23T15:01:00.021Z,3.10
2022-10-23T15:03:45.513Z,2.58
2022-10-23T15:06:31.004Z,2.07
2022-10-23T15:09:16.330Z,1.98
2022-10-23T15:12:01.667Z,2.65
2022-10-23T15:14:46.853Z,2.30
2022-10-23T15:17:33.863Z,2.17
2022-10-23T15:20:18.623Z,2.30
2022-10-23T15:23:03.864Z,2.90
2022-10-23T15:25:57.000Z,2.70
2022-10-23T15:28:41.990Z,3.60
2022-10-23T15:31:29.797Z,2.85
2022-10-23T15:34:20.354Z,2.70
2022-10-23T15:37:05.425Z,2.60
2022-10-23T15:39:50.168Z,2.97
2022-10-23T15:42:35.298Z,2.80
2022-10-23T15:45:20.395Z,2.88
2022-10-23T15:48:06.251Z,3.33
2022-10-23T15:50:51.066Z,2.97
2022-10-23T15:53:36.240Z,3.33
2022-10-23T15:56:21.370Z,2.80
2022-10-23T15:59:06.468Z,2.53
2022-10-23T16:01:51.561Z,2.70
2022-10-23T16:04:36.604Z,2.65
2022-10-23T16:07:21.729Z,17.58
2022-10-23T16:10:07.368Z,16.70
2022-10-23T16:12:52.260Z,11.52
2022-10-23T16:15:38.344Z,6.30
2022-10-23T16:18:23.371Z,4.97
2022-10-23T16:21:19.024Z,3.97
2022-10-23T16:24:06.940Z,4.72
2022-10-23T16:26:53.243Z,4.55
2022-10-23T16:29:38.422Z,3.60
2022-10-23T16:32:23.522Z,3.92
2022-10-23T16:35:12.349Z,3.85
2022-10-23T16:37:58.078Z,4.18
2022-10-23T16:40:50.410Z,4.53
2022-10-23T16:43:35.491Z,4.60
2022-10-23T16:46:22.151Z,4.00
2022-10-23T16:49:08.768Z,3.10
2022-10-23T16:51:53.970Z,2.05
2022-10-23T16:54:39.251Z,2.20
2022-10-23T16:57:27.136Z,1.73
2022-10-23T17:00:12.708Z,2.28
2022-10-23T17:02:57.322Z,2.28
2022-10-23T17:05:42.311Z,2.47
2022-10-23T17:08:27.898Z,2.30
2022-10-23T17:11:16.137Z,2.53
2022-10-23T17:14:03.959Z,2.40
2022-10-23T17:16:51.942Z,1.80
2022-10-23T17:19:46.625Z,1.52
2022-10-23T17:22:31.940Z,1.98
2022-10-23T17:25:17.170Z,1.30
2022-10-23T17:28:02.561Z,1.30
2022-10-23T17:30:47.407Z,1.45
2022-10-23T17:33:32.624Z,1.50
2022-10-23T17:36:19.404Z,1.10
2022-10-23T17:39:06.764Z,1.00
2022-10-23T17:41:52.782Z,1.40
2022-10-23T17:44:37.717Z,1.27
2022-10-23T17:47:22.891Z,1.45
2022-10-23T17:50:09.458Z,1.17
2022-10-23T17:52:54.160Z,0.90
2022-10-23T17:55:40.882Z,1.10
2022-10-23T17:58:25.965Z,1.10
2022-10-23T18:01:13.219Z,1.17
2022-10-23T18:04:01.218Z,1.38
2022-10-23T18:06:52.597Z,1.30
2022-10-23T18:09:37.707Z,1.50
2022-10-23T18:12:22.898Z,1.70
2022-10-23T18:15:08.403Z,2.80
2022-10-23T18:17:53.352Z,1.77
2022-10-23T18:20:40.020Z,1.90
2022-10-23T18:23:26.608Z,1.50
2022-10-23T18:26:17.779Z,1.50
2022-10-23T18:29:07.180Z,1.70
2022-10-23T18:31:52.465Z,1.52
2022-10-23T18:34:37.669Z,1.30
2022-10-23T18:37:23.335Z,2.50
2022-10-23T18:40:08.903Z,1.65
2022-10-23T18:42:53.792Z,1.73
2022-10-23T18:45:42.189Z,1.70
2022-10-23T18:48:27.251Z,1.50
2022-10-23T18:51:21.798Z,1.88
2022-10-23T18:54:11.076Z,1.30
2022-10-23T18:56:55.883Z,1.50
2022-10-23T18:59:41.037Z,1.00
2022-10-23T19:02:26.509Z,0.60
2022-10-23T19:05:11.988Z,0.80
2022-10-23T19:07:57.187Z,0.70
2022-10-23T19:10:43.970Z,1.50
2022-10-23T19:13:29.016Z,1.20
2022-10-23T19:16:19.632Z,1.07
2022-10-23T19:19:11.341Z,1.00
2022-10-23T19:21:56.902Z,1.40
2022-10-23T19:24:49.212Z,1.50
2022-10-23T19:27:34.392Z,1.70
2022-10-23T19:30:22.744Z,1.40
2022-10-23T19:33:08.109Z,4.57
2022-10-23T19:35:53.281Z,1.60
2022-10-23T19:38:40.159Z,1.10
2022-10-23T19:41:24.921Z,1.38
2022-10-23T19:44:10.650Z,1.43
2022-10-23T19:46:55.650Z,1.45
2022-10-23T19:49:40.804Z,1.25
2022-10-23T19:52:26.119Z,1.55
2022-10-23T19:55:11.034Z,1.77
2022-10-23T19:57:56.124Z,1.90
2022-10-23T20:00:41.342Z,1.85
2022-10-23T20:03:26.367Z,1.15
2022-10-23T20:06:13.967Z,1.33
2022-10-23T20:09:00.176Z,1.40
2022-10-23T20:11:45.131Z,1.40
2022-10-23T20:14:30.511Z,1.75
2022-10-23T20:17:15.473Z,1.73
2022-10-23T20:20:00.231Z,1.52
2022-10-23T20:22:45.664Z,1.80
2022-10-23T20:25:30.951Z,1.70
2022-10-23T20:28:16.190Z,1.58
2022-10-23T20:31:05.787Z,1.98
2022-10-23T20:33:51.321Z,1.85
2022-10-23T20:36:41.126Z,1.70
2022-10-23T20:39:29.643Z,1.50
2022-10-23T20:42:14.827Z,2.10
2022-10-23T20:44:59.967Z,1.55
2022-10-23T20:47:46.241Z,2.20
2022-10-23T20:50:34.705Z,1.92
2022-10-23T20:53:19.941Z,1.70
2022-10-23T20:56:07.109Z,1.90
2022-10-23T20:58:52.038Z,2.00
2022-10-23T21:01:40.726Z,1.95
2022-10-23T21:04:27.961Z,1.85
2022-10-23T21:07:12.953Z,1.40
2022-10-23T21:09:58.304Z,1.88
2022-10-23T21:12:43.462Z,1.88
2022-10-23T21:15:28.886Z,1.65
2022-10-23T21:18:27.205Z,1.48
2022-10-23T21:21:22.964Z,1.47
2022-10-23T21:24:12.253Z,1.70
2022-10-23T21:26:57.264Z,1.92
2022-10-23T21:29:42.800Z,1.83
2022-10-23T21:32:27.578Z,1.60
2022-10-23T21:35:12.816Z,2.00
2022-10-23T21:37:58.327Z,1.55
2022-10-23T21:40:43.407Z,2.25
2022-10-23T21:43:28.560Z,1.55
2022-10-23T21:46:17.419Z,1.80
2022-10-23T21:49:02.594Z,1.63
2022-10-23T21:51:47.881Z,1.70
2022-10-23T21:54:33.173Z,2.00
2022-10-23T21:57:18.097Z,2.25
2022-10-23T22:00:04.812Z,1.80
2022-10-23T22:02:49.827Z,2.13
2022-10-23T22:05:35.397Z,2.00
2022-10-23T22:08:20.452Z,1.88
2022-10-23T22:11:05.649Z,1.98
2022-10-23T22:13:50.699Z,2.20
2022-10-23T22:16:35.499Z,1.90
2022-10-23T22:19:22.248Z,2.20
2022-10-23T22:22:07.163Z,2.22
2022-10-23T22:24:52.402Z,2.20
2022-10-23T22:27:37.964Z,2.20
2022-10-23T22:30:22.787Z,1.63
2022-10-23T22:33:07.881Z,2.00
2022-10-23T22:35:52.777Z,1.92
2022-10-23T22:38:38.458Z,1.92
2022-10-23T22:41:23.978Z,1.70
2022-10-23T22:44:10.968Z,1.50
2022-10-23T22:46:56.129Z,1.65
2022-10-23T22:49:42.198Z,1.42
2022-10-23T22:52:27.382Z,1.77
2022-10-23T22:55:12.263Z,1.55
2022-10-23T22:57:57.459Z,1.67
2022-10-23T23:00:43.644Z,1.83
2022-10-23T23:03:28.907Z,1.60
2022-10-23T23:06:14.881Z,1.73
2022-10-23T23:09:00.051Z,2.00
2022-10-23T23:11:52.137Z,1.47
2022-10-23T23:14:38.587Z,1.25
2022-10-23T23:17:23.619Z,2.35
2022-10-23T23:20:09.289Z,1.80
2022-10-23T23:22:54.202Z,2.10
2022-10-23T23:25:44.004Z,2.20
2022-10-23T23:28:29.079Z,1.92
2022-10-23T23:31:23.297Z,2.50
2022-10-23T23:34:08.504Z,2.42
2022-10-23T23:36:53.265Z,2.28
2022-10-23T23:39:38.477Z,1.80
2022-10-23T23:42:23.504Z,2.08
2022-10-23T23:45:14.521Z,2.03
2022-10-23T23:47:59.898Z,2.30
2022-10-23T23:50:44.948Z,1.92
2022-10-23T23:53:30.315Z,1.93
2022-10-23T23:56:15.752Z,2.10
2022-10-23T23:59:00.843Z,2.03
